首页
METAR-TAF:

METAR-TAF

机场 :

梅茨南希洛林, 法国

纬度: 48-59N, 经度: 006-15E, 海拔: 264米

当前天气观测

该预报发布于23分钟前的03:30 UTC
风速12节,风向东转东南
温度 3°C
湿度 93%
气压 999 hPa
能见度10公里或以上
1500米以下无云,无积雨云

METAR: LFJL 140330Z AUTO 11012KT CAVOK 03/02 Q0999 NOSIG

时间: 04:53 (03:53 UTC)

预报

该预报发布于4小时和53分钟前的23:00 UTC
预报有效从14日的 00点(UTC)到 14日的 24点(UTC)
风速12节,风向东转东南
能见度10公里或以上
散云层高于1500英尺
几率 40% :
短暂存在
从 14日的 09点(UTC)到 14日的 12点(UTC)
能見度: 4000
多云层高于1000英尺
小雨
短暂存在
从 14日的 14点(UTC)到 14日的 18点(UTC)
多云层高于1500英尺

TAF: LFJL 132300Z 1400/1424 12012KT 9999 SCT015 PROB40 TEMPO 1409/1412 4000 -RA BKN010 TEMPO 1414/1418 RA BKN015

超过4000个机场的气象观测和天气预报(METAR&TAF报告)。

可查询的气象台以黄色和红色小点在地图上表示。

将鼠标移到小点上方,可查看气象台名称。

然后点击查看天气观测和预报。

如需切换地图:点击带黑十字的绿色按钮放大地图;点击带横线的绿色按钮缩小地图;或者点击绿色箭头查看邻近地区的地图。


METAR-TAF: